createdAt,value
2022-09-25T00:00:06.005Z,6
2022-09-25T00:05:44.234Z,5.7
2022-09-25T00:11:08.950Z,5.7
2022-09-25T00:16:46.785Z,5.6
2022-09-25T00:22:24.301Z,5.8
2022-09-25T00:28:00.931Z,5.6
2022-09-25T00:33:39.163Z,5.8
2022-09-25T00:39:01.720Z,6.1
2022-09-25T00:44:08.090Z,5.9
2022-09-25T00:49:45.071Z,5.6
2022-09-25T00:55:23.200Z,5.3
2022-09-25T01:00:45.106Z,5.3
2022-09-25T01:06:23.304Z,5.1
2022-09-25T01:12:01.244Z,4.8
2022-09-25T01:17:22.816Z,5
2022-09-25T01:23:01.272Z,5.2
2022-09-25T01:28:39.498Z,4.9
2022-09-25T01:34:16.641Z,4.8
2022-09-25T01:39:53.816Z,4.6
2022-09-25T01:45:31.657Z,4.5
2022-09-25T01:50:52.440Z,4.5
2022-09-25T01:56:13.740Z,5.3
2022-09-25T02:01:36.277Z,5.3
2022-09-25T02:12:19.500Z,5
2022-09-25T02:17:41.426Z,4.8
2022-09-25T02:22:47.474Z,4.6
2022-09-25T02:28:09.662Z,4.6
2022-09-25T02:33:32.365Z,4.6
2022-09-25T02:39:13.623Z,4.6
2022-09-25T02:44:19.873Z,4.7
2022-09-25T02:49:58.052Z,4.8
2022-09-25T02:55:17.926Z,4.8
2022-09-25T03:01:01.511Z,5.1
2022-09-25T03:06:24.152Z,5.2
2022-09-25T03:11:46.068Z,5.1
2022-09-25T03:17:08.452Z,5
2022-09-25T03:22:30.850Z,4.8
2022-09-25T03:27:37.511Z,4.6
2022-09-25T03:32:43.849Z,4.4
2022-09-25T03:38:21.170Z,4.3
2022-09-25T03:43:26.392Z,3.9
2022-09-25T03:48:47.768Z,3.9
2022-09-25T03:59:00.302Z,3.8
2022-09-25T04:04:23.498Z,3.5
2022-09-25T04:09:45.148Z,3.6
2022-09-25T04:14:36.009Z,3.4
2022-09-25T04:19:57.858Z,3.4
2022-09-25T04:24:49.260Z,3.3
2022-09-25T04:29:56.123Z,3.7
2022-09-25T04:35:18.252Z,3.9
2022-09-25T04:40:56.166Z,4
2022-09-25T04:46:21.685Z,3.9
2022-09-25T04:51:45.006Z,3.8
2022-09-25T04:57:07.485Z,3.9
2022-09-25T05:03:03.373Z,4.5
2022-09-25T05:08:26.990Z,4.9
2022-09-25T05:13:49.842Z,5.5
2022-09-25T05:19:12.546Z,5.7
2022-09-25T05:24:34.769Z,6.1
2022-09-25T05:30:03.208Z,7.2
2022-09-25T05:35:09.793Z,7.4
2022-09-25T05:40:47.562Z,8.2
2022-09-25T05:46:25.535Z,8.6
2022-09-25T05:51:47.944Z,9.4
2022-09-25T05:57:10.797Z,9.8
2022-09-25T06:02:32.904Z,9.9
2022-09-25T06:19:07.881Z,11.5
2022-09-25T06:24:47.529Z,11.8
2022-09-25T06:30:30.889Z,12.4
2022-09-25T06:36:10.429Z,12.5
2022-09-25T06:41:50.862Z,13.3
2022-09-25T06:47:34.742Z,13.4
2022-09-25T06:53:12.927Z,13.9
2022-09-25T06:58:49.943Z,14.7
2022-09-25T07:04:18.368Z,14.8
2022-09-25T07:09:56.836Z,15.3
2022-09-25T07:15:34.279Z,15.4
2022-09-25T07:21:12.272Z,16.3
2022-09-25T07:26:51.113Z,16.4
2022-09-25T07:32:29.079Z,16.4
2022-09-25T07:38:06.397Z,17.3
2022-09-25T07:43:52.688Z,16.3
2022-09-25T07:49:54.987Z,17.6
2022-09-25T07:55:21.123Z,16.8
2022-09-25T08:01:01.390Z,18.1
2022-09-25T08:06:48.234Z,17.8
2022-09-25T08:12:26.965Z,16.8
2022-09-25T08:17:55.942Z,18.6
2022-09-25T08:23:35.887Z,18.1
2022-09-25T08:29:16.001Z,18
2022-09-25T08:35:30.487Z,19.9
2022-09-25T08:40:57.473Z,18.9
2022-09-25T08:47:02.119Z,19.8
2022-09-25T08:52:27.988Z,19.9
2022-09-25T08:58:11.539Z,19.6
2022-09-25T09:03:51.736Z,20.6
2022-09-25T09:09:44.420Z,21.2
2022-09-25T09:14:58.248Z,21.4
2022-09-25T09:20:06.124Z,21.9
2022-09-25T09:25:35.337Z,21
2022-09-25T09:30:59.446Z,21.5
2022-09-25T09:36:39.906Z,20.6
2022-09-25T09:42:20.488Z,21.4
2022-09-25T09:47:44.431Z,21.9
2022-09-25T09:53:28.059Z,20.7
2022-09-25T09:59:07.577Z,22.4
2022-09-25T10:05:21.752Z,23.6
2022-09-25T10:11:01.055Z,23.6
2022-09-25T10:16:41.713Z,23.1
2022-09-25T10:22:20.905Z,22.6
2022-09-25T20:05:25.344Z,12.5
2022-09-25T20:11:09.335Z,12.6
2022-09-25T20:16:50.120Z,12.1
2022-09-25T20:22:17.585Z,12.4
2022-09-25T20:27:59.043Z,12.5
2022-09-25T20:33:39.670Z,11.8
2022-09-25T20:39:04.702Z,12.1
2022-09-25T20:44:46.178Z,11.2
2022-09-25T20:50:10.870Z,11.1
2022-09-25T20:55:50.865Z,11.3
2022-09-25T21:01:32.599Z,11.3
2022-09-25T21:07:16.670Z,11.3
2022-09-25T21:12:41.076Z,11.3
2022-09-25T21:18:22.111Z,11.1
2022-09-25T21:24:01.703Z,11.7
2022-09-25T21:29:40.805Z,11.5
2022-09-25T21:35:08.367Z,10.7
2022-09-25T21:40:50.058Z,11.6
2022-09-25T21:46:13.990Z,12
2022-09-25T21:51:54.217Z,11.6
2022-09-25T21:57:32.584Z,11.2
2022-09-25T22:03:11.542Z,10.9
2022-09-25T22:08:51.047Z,10.9
2022-09-25T22:14:32.782Z,10.4
2022-09-25T22:19:55.718Z,10.7
2022-09-25T22:25:18.809Z,10.6
2022-09-25T22:30:57.023Z,10.4
2022-09-25T22:36:19.715Z,10.1
2022-09-25T22:42:04.336Z,10.3
2022-09-25T22:47:26.291Z,10.3
2022-09-25T22:53:02.898Z,10.2
2022-09-25T22:58:40.833Z,10.1
2022-09-25T23:04:18.619Z,10.4
2022-09-25T23:09:56.215Z,10.3
2022-09-25T23:15:56.680Z,10.5
2022-09-25T23:21:33.938Z,10.5
2022-09-25T23:27:10.752Z,10.1
2022-09-25T23:32:18.727Z,10.2
2022-09-25T23:37:54.828Z,10.3
2022-09-25T23:43:21.866Z,10.3
2022-09-25T23:48:45.138Z,10.3
2022-09-25T23:54:22.882Z,10.3
2022-09-25T23:59:59.938Z,10.6
